Time;durP1;ratioP1;P1;durP2;ratioP2;P2;SDS_P1;SDS_P2;PMS_P1;PMS_P2;Temp;Humidity;BMP_temperature;BMP_pressure;BME280_temperature;BME280_humidity;BME280_pressure;Samples;Min_cycle;Max_cycle;Signal;HPM_P1;HPM_P2
2023/07/26 00:02:17;;;;;;;3.35;1.60;;;;;;;11.67;94.47;100316.09;5051676;28;20032;-94
2023/07/26 00:04:42;;;;;;;3.30;1.60;;;;;;;11.64;95.51;100313.72;5052015;28;20075;-93
2023/07/26 00:07:08;;;;;;;6.45;2.00;;;;;;;11.62;94.74;100318.16;5053132;28;20028;-94
2023/07/26 00:09:33;;;;;;;4.85;1.42;;;;;;;11.69;94.81;100314.25;5053240;28;20025;-94
2023/07/26 00:11:58;;;;;;;2.38;1.65;;;;;;;11.54;96.22;100316.06;5051824;28;20035;-95
2023/07/26 00:14:24;;;;;;;3.90;2.15;;;;;;;11.52;97.07;100322.25;5052199;28;20056;-94
2023/07/26 00:16:49;;;;;;;4.50;2.08;;;;;;;11.52;96.66;100330.00;5053273;28;20061;-93
2023/07/26 00:19:19;;;;;;;2.88;1.30;;;;;;;11.42;95.32;100327.16;5052261;28;20043;-93
2023/07/26 00:21:44;;;;;;;6.03;1.67;;;;;;;11.41;94.91;100322.94;5051145;28;20498;-94
2023/07/26 00:24:09;;;;;;;2.75;1.63;;;;;;;11.28;95.37;100325.44;5051473;28;20045;-94
2023/07/26 00:26:35;;;;;;;3.38;1.52;;;;;;;11.12;96.19;100328.16;5051658;28;20080;-94
2023/07/26 00:29:00;;;;;;;3.83;1.73;;;;;;;11.06;99.53;100336.25;5050833;28;20021;-94
2023/07/26 00:31:26;;;;;;;3.13;1.77;;;;;;;10.98;99.92;100335.91;5052833;28;20081;-94
2023/07/26 00:33:51;;;;;;;2.70;1.45;;;;;;;11.05;100.00;100332.03;5051440;28;20035;-94
2023/07/26 00:36:16;;;;;;;2.58;1.80;;;;;;;10.88;100.00;100327.88;5052717;28;20021;-93
2023/07/26 00:38:42;;;;;;;4.05;1.67;;;;;;;10.85;100.00;100346.16;5051346;28;20028;-94
2023/07/26 00:41:07;;;;;;;2.97;1.83;;;;;;;10.84;100.00;100341.91;5051197;28;20078;-94
2023/07/26 00:43:33;;;;;;;5.15;1.55;;;;;;;10.78;100.00;100339.69;5050850;28;20021;-93
2023/07/26 00:45:59;;;;;;;5.78;1.80;;;;;;;10.90;100.00;100335.56;5031433;28;20017;-94
2023/07/26 00:48:25;;;;;;;2.97;1.80;;;;;;;11.12;100.00;100335.06;5031391;28;20033;-93
2023/07/26 00:50:52;;;;;;;4.03;1.98;;;;;;;11.22;98.16;100332.75;5031618;28;20025;-94
2023/07/26 00:53:18;;;;;;;4.43;1.90;;;;;;;11.00;96.37;100333.22;5032496;28;20017;-93
2023/07/26 00:55:45;;;;;;;5.32;1.95;;;;;;;10.81;99.87;100333.53;5031374;28;20032;-93
2023/07/26 00:58:11;;;;;;;4.10;2.13;;;;;;;10.79;100.00;100325.84;5032720;28;20541;-94
2023/07/26 01:00:43;;;;;;;3.22;1.83;;;;;;;10.79;99.84;100325.03;5051411;28;20060;-93
2023/07/26 01:03:08;;;;;;;4.75;2.03;;;;;;;10.57;100.00;100322.91;5052373;28;20025;-92
2023/07/26 01:05:58;;;;;;;2.63;1.45;;;;;;;10.69;100.00;100325.56;5052226;28;20104;-93
2023/07/26 01:08:34;;;;;;;3.05;1.90;;;;;;;10.74;100.00;100316.75;5051707;28;20091;-93
2023/07/26 01:11:08;;;;;;;4.65;1.80;;;;;;;10.71;100.00;100321.16;5051039;28;20049;-94
2023/07/26 01:13:49;;;;;;;5.72;1.88;;;;;;;10.87;100.00;100320.22;5049849;28;20021;-93
2023/07/26 01:16:15;;;;;;;2.58;1.83;;;;;;;10.77;100.00;100314.78;5051025;28;20442;-94
2023/07/26 01:18:40;;;;;;;6.72;2.00;;;;;;;10.81;100.00;100320.63;5052096;28;20025;-93
2023/07/26 01:21:06;;;;;;;5.35;1.90;;;;;;;10.77;100.00;100319.13;5050847;28;20025;-94
2023/07/26 01:23:31;;;;;;;6.72;1.63;;;;;;;10.69;100.00;100312.66;5050829;28;20498;-94
2023/07/26 01:25:57;;;;;;;6.68;2.28;;;;;;;10.74;100.00;100314.16;5050691;28;20116;-94
2023/07/26 01:28:22;;;;;;;3.38;1.70;;;;;;;10.50;100.00;100312.09;5050385;28;20052;-93
2023/07/26 01:30:49;;;;;;;5.43;1.80;;;;;;;10.45;100.00;100309.78;5051778;28;20475;-92
2023/07/26 01:33:17;;;;;;;3.13;1.50;;;;;;;10.40;100.00;100321.31;5051994;28;20035;-93
2023/07/26 01:35:43;;;;;;;8.32;2.30;;;;;;;10.36;100.00;100310.31;5054869;28;20025;-93
2023/07/26 01:38:11;;;;;;;3.65;1.83;;;;;;;10.36;100.00;100309.50;5054802;28;20045;-93
2023/07/26 01:40:37;;;;;;;3.38;1.50;;;;;;;10.25;100.00;100303.19;5054605;28;20052;-93
2023/07/26 01:43:03;;;;;;;6.07;2.17;;;;;;;10.42;100.00;100306.56;5055163;28;20041;-93
2023/07/26 01:45:28;;;;;;;3.00;1.75;;;;;;;10.37;100.00;100306.03;5054639;28;20075;-93
2023/07/26 01:47:54;;;;;;;3.63;1.70;;;;;;;10.47;100.00;100307.97;5054694;28;20501;-94
2023/07/26 01:50:19;;;;;;;4.95;1.83;;;;;;;10.52;100.00;100305.09;5054651;28;20090;-93
2023/07/26 01:52:45;;;;;;;6.57;1.98;;;;;;;10.47;100.00;100307.97;5054506;28;20033;-94
2023/07/26 01:55:10;;;;;;;3.97;1.80;;;;;;;10.36;100.00;100304.34;5054078;28;20056;-94
2023/07/26 01:57:35;;;;;;;3.40;1.60;;;;;;;10.33;100.00;100307.09;5053821;28;20469;-94
2023/07/26 02:00:01;;;;;;;4.05;1.90;;;;;;;10.23;100.00;100299.03;5055369;28;20037;-94
2023/07/26 02:02:27;;;;;;;6.22;1.90;;;;;;;10.16;100.00;100295.97;5070913;28;20021;-94
2023/07/26 02:04:52;;;;;;;4.10;2.13;;;;;;;10.09;100.00;100307.56;5054299;28;20033;-93
2023/07/26 02:07:17;;;;;;;2.75;1.40;;;;;;;10.27;100.00;100306.53;5055325;28;20033;-95
2023/07/26 02:09:43;;;;;;;5.22;2.03;;;;;;;10.26;100.00;100297.09;5055449;28;20552;-93
2023/07/26 02:12:08;;;;;;;3.97;1.50;;;;;;;10.19;100.00;100288.09;5055285;28;20463;-92
2023/07/26 02:14:34;;;;;;;4.03;1.85;;;;;;;10.09;100.00;100297.25;5053209;28;20033;-95
2023/07/26 02:16:59;;;;;;;4.72;2.13;;;;;;;10.09;100.00;100297.25;5055182;28;20410;-93
2023/07/26 02:19:24;;;;;;;3.80;1.83;;;;;;;10.16;100.00;100288.25;5054210;28;20375;-94
2023/07/26 02:21:50;;;;;;;7.43;2.00;;;;;;;10.12;100.00;100289.38;5055129;28;20028;-94
2023/07/26 02:24:15;;;;;;;6.90;2.08;;;;;;;10.03;100.00;100288.13;5055015;28;20514;-93
2023/07/26 02:26:41;;;;;;;6.03;2.00;;;;;;;10.01;100.00;100284.81;5053876;28;20036;-92
2023/07/26 02:29:06;;;;;;;2.92;1.55;;;;;;;10.06;100.00;100284.53;5053096;28;20104;-92
2023/07/26 02:31:31;;;;;;;9.27;1.90;;;;;;;10.19;100.00;100277.78;5054658;28;20080;-93
2023/07/26 02:33:57;;;;;;;3.47;1.67;;;;;;;9.90;100.00;100279.47;5054894;28;20032;-93
2023/07/26 02:36:22;;;;;;;4.40;1.85;;;;;;;9.90;100.00;100276.03;5053649;28;20484;-94
2023/07/26 02:38:48;;;;;;;6.40;1.73;;;;;;;9.89;100.00;100275.19;5054934;28;20032;-93
2023/07/26 02:41:13;;;;;;;4.18;1.80;;;;;;;9.88;100.00;100280.47;5054932;28;20032;-93
2023/07/26 02:43:38;;;;;;;3.90;1.45;;;;;;;9.91;100.00;100272.53;5053232;28;20029;-93
2023/07/26 02:46:04;;;;;;;4.97;1.95;;;;;;;10.03;100.00;100282.16;5052229;28;20048;-94
2023/07/26 02:48:29;;;;;;;5.50;1.88;;;;;;;10.05;100.00;100280.31;5054773;28;20025;-93
2023/07/26 02:50:55;;;;;;;3.13;2.15;;;;;;;9.96;100.00;100286.00;5054563;28;20371;-93
2023/07/26 02:53:21;;;;;;;3.70;1.90;;;;;;;9.87;100.00;100282.19;5054229;28;20060;-93
2023/07/26 02:55:46;;;;;;;2.33;1.70;;;;;;;9.74;100.00;100281.22;5053362;28;20033;-93
2023/07/26 02:58:11;;;;;;;3.20;2.00;;;;;;;9.70;100.00;100287.47;5052584;28;20492;-95
2023/07/26 03:00:37;;;;;;;4.32;2.08;;;;;;;9.69;100.00;100281.50;5053143;28;20025;-94
2023/07/26 03:03:02;;;;;;;6.95;2.05;;;;;;;9.69;100.00;100289.22;5054351;28;20025;-93
2023/07/26 03:05:28;;;;;;;4.53;2.53;;;;;;;9.65;100.00;100285.16;5054528;28;20033;-92
2023/07/26 03:07:53;;;;;;;8.25;2.20;;;;;;;9.74;100.00;100291.53;5052952;28;20090;-93
2023/07/26 03:10:19;;;;;;;4.95;2.28;;;;;;;9.76;100.00;100293.13;5053160;28;20025;-92
2023/07/26 03:12:44;;;;;;;3.97;1.80;;;;;;;9.67;100.00;100296.22;5053093;28;20061;-94
2023/07/26 03:15:10;;;;;;;2.60;1.60;;;;;;;9.42;100.00;100291.59;5068926;28;20478;-93
2023/07/26 03:17:35;;;;;;;4.45;1.80;;;;;;;9.55;100.00;100286.59;5053758;28;20033;-94
2023/07/26 03:20:01;;;;;;;3.00;1.98;;;;;;;9.53;100.00;100281.50;5054284;28;20379;-93
2023/07/26 03:22:26;;;;;;;3.95;1.73;;;;;;;9.55;100.00;100287.41;5052995;28;20021;-94
2023/07/26 03:24:52;;;;;;;2.50;1.88;;;;;;;9.56;100.00;100278.78;5054268;28;20021;-95
2023/07/26 03:27:17;;;;;;;4.57;1.83;;;;;;;9.57;100.00;100289.91;5052072;28;20094;-93
2023/07/26 03:29:42;;;;;;;6.10;2.17;;;;;;;9.77;100.00;100279.31;5052522;28;20119;-93
2023/07/26 03:32:08;;;;;;;3.78;1.75;;;;;;;9.73;100.00;100283.00;5052760;28;20399;-94
2023/07/26 03:34:33;;;;;;;3.03;2.03;;;;;;;9.67;100.00;100282.50;5052588;28;20028;-94
2023/07/26 03:36:59;;;;;;;4.35;2.00;;;;;;;9.62;100.00;100268.13;5052592;28;20025;-93
2023/07/26 03:39:24;;;;;;;4.95;2.30;;;;;;;9.63;100.00;100279.25;5052538;28;20025;-93
2023/07/26 03:41:50;;;;;;;3.35;2.00;;;;;;;9.52;100.00;100272.13;5051702;28;20467;-94
2023/07/26 03:44:15;;;;;;;3.60;2.00;;;;;;;9.40;100.00;100263.31;5052213;28;20031;-94
2023/07/26 03:46:40;;;;;;;3.55;2.03;;;;;;;9.34;100.00;100273.97;5052375;28;20031;-94
2023/07/26 03:49:06;;;;;;;3.80;2.30;;;;;;;9.32;100.00;100264.69;5052299;28;20046;-94
2023/07/26 03:51:31;;;;;;;3.40;2.15;;;;;;;9.28;100.00;100269.16;5053597;28;20082;-93
2023/07/26 03:53:56;;;;;;;4.30;2.30;;;;;;;9.08;100.00;100272.81;5052181;28;20391;-95
2023/07/26 03:56:22;;;;;;;5.60;2.25;;;;;;;9.16;100.00;100280.13;5051919;28;20084;-94
2023/07/26 03:58:48;;;;;;;3.20;1.88;;;;;;;9.15;100.00;100283.63;5051251;28;20037;-93
2023/07/26 04:01:13;;;;;;;4.07;2.03;;;;;;;9.07;100.00;100276.31;5052692;28;20111;-94
2023/07/26 04:03:39;;;;;;;3.28;2.13;;;;;;;9.16;100.00;100280.13;5053101;28;20025;-94
2023/07/26 04:06:04;;;;;;;3.97;2.35;;;;;;;9.13;100.00;100273.41;5052703;28;20037;-93
2023/07/26 04:08:30;;;;;;;5.38;2.10;;;;;;;9.11;100.00;100282.13;5052669;28;20124;-94
2023/07/26 04:10:55;;;;;;;4.65;2.22;;;;;;;9.11;100.00;100287.25;5052512;28;20035;-93
2023/07/26 04:13:21;;;;;;;7.05;1.98;;;;;;;9.13;100.00;100280.28;5051648;28;20052;-93
2023/07/26 04:15:47;;;;;;;3.33;1.70;;;;;;;9.15;100.00;100273.31;5053923;28;20080;-93
2023/07/26 04:18:12;;;;;;;4.28;1.88;;;;;;;9.03;100.00;100279.13;5052470;28;20025;-93
2023/07/26 04:20:38;;;;;;;9.27;2.30;;;;;;;9.11;100.00;100282.13;5052713;28;20025;-94
2023/07/26 04:23:03;;;;;;;3.75;2.20;;;;;;;9.08;100.00;100274.56;5052822;28;20021;-94
2023/07/26 04:25:28;;;;;;;6.25;2.25;;;;;;;9.07;100.00;100271.16;5052388;28;20070;-93
2023/07/26 04:27:54;;;;;;;4.85;2.03;;;;;;;9.25;100.00;100279.63;5052511;28;20119;-94
2023/07/26 04:30:19;;;;;;;7.43;2.28;;;;;;;9.32;100.00;100275.81;5053811;28;20032;-93
2023/07/26 04:32:45;;;;;;;4.82;2.28;;;;;;;9.19;100.00;100285.09;5052314;28;20031;-94
2023/07/26 04:35:10;;;;;;;4.40;2.33;;;;;;;9.09;100.00;100278.78;5052458;28;20116;-93
2023/07/26 04:37:35;;;;;;;3.53;2.22;;;;;;;9.13;100.00;100280.28;5052581;28;20024;-95
2023/07/26 04:40:01;;;;;;;6.63;2.33;;;;;;;9.11;100.00;100276.97;5052475;28;20053;-93
2023/07/26 04:42:26;;;;;;;4.55;2.13;;;;;;;9.20;100.00;100271.31;5051307;28;20032;-94
2023/07/26 04:44:51;;;;;;;3.95;2.35;;;;;;;9.46;100.00;100274.22;5052024;28;20053;-94
2023/07/26 04:47:19;;;;;;;4.28;2.45;;;;;;;9.27;100.00;100274.41;5052119;28;20025;-94
2023/07/26 04:49:44;;;;;;;4.95;2.15;;;;;;;9.38;100.00;100279.78;5052291;28;20063;-94
2023/07/26 04:52:10;;;;;;;7.25;2.58;;;;;;;9.36;100.00;100277.31;5052125;28;20441;-94
2023/07/26 04:54:35;;;;;;;4.10;2.10;;;;;;;9.36;100.00;100277.31;5052555;28;20048;-95
2023/07/26 04:57:00;;;;;;;4.72;2.30;;;;;;;9.34;100.00;100289.44;5051096;28;20025;-94
2023/07/26 04:59:26;;;;;;;3.90;2.47;;;;;;;9.27;100.00;100282.97;5051449;28;20075;-95
2023/07/26 05:01:51;;;;;;;5.60;2.60;;;;;;;9.27;100.00;100282.97;5049887;28;20017;-94
2023/07/26 05:04:17;;;;;;;4.47;2.53;;;;;;;9.25;100.00;100273.66;5051434;28;20052;-94
2023/07/26 05:06:42;;;;;;;3.78;2.08;;;;;;;9.28;100.00;100276.88;5050467;28;20025;-96
2023/07/26 05:09:07;;;;;;;8.38;2.17;;;;;;;9.33;100.00;100274.88;5049679;28;20085;-94
2023/07/26 05:11:33;;;;;;;4.40;2.33;;;;;;;9.42;100.00;100276.13;5062370;28;20150;-94
2023/07/26 05:13:58;;;;;;;4.75;2.28;;;;;;;9.44;100.00;100274.31;5050349;28;20033;-94
2023/07/26 05:16:24;;;;;;;4.38;2.40;;;;;;;9.50;100.00;100273.13;5049930;28;20033;-94
2023/07/26 05:18:49;;;;;;;6.25;2.53;;;;;;;9.48;100.00;100280.09;5051626;28;20040;-95
2023/07/26 05:21:14;;;;;;;6.95;2.83;;;;;;;9.63;100.00;100279.25;5049538;28;20028;-94
2023/07/26 05:23:40;;;;;;;4.60;2.80;;;;;;;9.71;100.00;100279.66;5052004;28;20036;-95
2023/07/26 05:26:05;;;;;;;5.03;2.35;;;;;;;9.83;100.00;100280.72;5050663;28;20267;-94
2023/07/26 05:28:30;;;;;;;6.50;2.95;;;;;;;9.87;100.00;100277.03;5049383;28;20022;-94
2023/07/26 05:30:56;;;;;;;5.05;2.22;;;;;;;9.81;100.00;100267.91;5049556;28;20035;-94
2023/07/26 05:33:22;;;;;;;4.97;2.60;;;;;;;9.84;100.00;100278.03;5050613;28;20044;-94
2023/07/26 05:35:47;;;;;;;5.47;2.80;;;;;;;9.85;100.00;100279.72;5050232;28;20021;-95
2023/07/26 05:38:13;;;;;;;9.27;3.22;;;;;;;9.89;100.00;100274.38;5051530;28;20033;-95
2023/07/26 05:40:38;;;;;;;5.88;3.47;;;;;;;9.94;100.00;100285.25;5051200;28;20474;-95
2023/07/26 05:43:04;;;;;;;8.63;3.13;;;;;;;10.00;100.00;100279.75;5050756;28;20039;-93
2023/07/26 05:45:29;;;;;;;5.70;2.58;;;;;;;10.07;100.00;100286.19;5050260;28;20040;-94
2023/07/26 05:47:54;;;;;;;6.05;3.10;;;;;;;10.19;100.00;100285.50;5049848;28;20036;-95
2023/07/26 05:50:20;;;;;;;9.48;3.13;;;;;;;10.20;100.00;100278.59;5051081;28;20416;-95
2023/07/26 05:52:45;;;;;;;4.90;2.72;;;;;;;10.25;100.00;100287.72;5033082;28;20032;-93
2023/07/26 05:55:12;;;;;;;5.70;2.45;;;;;;;10.33;100.00;100287.28;5032552;28;20491;-94
2023/07/26 05:57:37;;;;;;;4.50;2.22;;;;;;;10.41;100.00;100289.41;5046666;28;20029;-96
2023/07/26 06:00:03;;;;;;;3.95;2.60;;;;;;;10.49;100.00;100287.22;5051810;28;20098;-94
2023/07/26 06:02:29;;;;;;;5.43;2.72;;;;;;;10.62;100.00;100295.88;5050958;28;20025;-94
2023/07/26 06:04:54;;;;;;;6.32;3.10;;;;;;;10.80;100.00;100286.22;5051452;28;20379;-93
2023/07/26 06:07:20;;;;;;;5.63;2.45;;;;;;;10.97;100.00;100292.09;5051304;28;20032;-95
2023/07/26 06:09:45;;;;;;;7.63;2.40;;;;;;;11.10;100.00;100280.91;5051121;28;20031;-94
2023/07/26 06:12:11;;;;;;;5.45;2.40;;;;;;;11.34;100.00;100282.91;5048829;28;20035;-93
2023/07/26 06:14:36;;;;;;;8.15;2.80;;;;;;;11.55;100.00;100276.34;5051903;28;20036;-95
2023/07/26 06:17:02;;;;;;;7.13;3.08;;;;;;;11.89;100.00;100278.53;5051889;28;20025;-94
2023/07/26 06:19:27;;;;;;;7.63;3.13;;;;;;;12.10;100.00;100265.97;5054012;28;20025;-96
2023/07/26 06:21:55;;;;;;;6.97;2.92;;;;;;;12.35;100.00;100271.13;5045109;28;20029;-95
2023/07/26 06:24:27;;;;;;;6.45;3.10;;;;;;;12.63;100.00;100274.41;5035162;28;20043;-94
2023/07/26 06:26:53;;;;;;;;;;;;;;;12.92;100.00;100275.00;5047563;28;20376;-93
2023/07/26 06:29:19;;;;;;;7.60;2.92;;;;;;;13.00;100.00;100269.31;5054852;28;19923;-93
2023/07/26 06:31:44;;;;;;;9.32;3.10;;;;;;;13.10;100.00;100278.09;5054913;28;20383;-93
2023/07/26 06:34:09;;;;;;;7.82;3.40;;;;;;;13.57;100.00;100275.66;5054531;28;20036;-94
2023/07/26 06:36:50;;;;;;;5.03;3.22;;;;;;;14.57;96.88;100276.03;5052288;28;20021;-94
2023/07/26 06:39:16;;;;;;;10.23;3.13;;;;;;;16.03;85.18;100278.25;5054127;28;20148;-93
2023/07/26 06:41:41;;;;;;;7.13;3.10;;;;;;;16.85;78.79;100287.84;5051768;28;20135;-95
2023/07/26 06:44:07;;;;;;;10.63;2.60;;;;;;;18.55;68.44;100292.69;5052951;28;20444;-95
2023/07/26 06:46:33;;;;;;;8.60;2.83;;;;;;;20.29;62.71;100293.28;5052944;28;20029;-93
2023/07/26 06:49:00;;;;;;;6.65;3.22;;;;;;;20.71;59.13;100297.78;5052819;28;20494;-95
2023/07/26 06:51:26;;;;;;;6.18;2.60;;;;;;;22.00;54.22;100299.19;5054034;28;20029;-93
2023/07/26 06:53:51;;;;;;;6.45;2.80;;;;;;;22.75;51.84;100303.28;5055243;28;20467;-93
2023/07/26 06:56:17;;;;;;;7.93;2.90;;;;;;;23.46;48.87;100302.28;5053144;28;20610;-93
2023/07/26 06:58:42;;;;;;;4.95;2.75;;;;;;;23.49;48.66;100307.19;5053299;28;20416;-90
2023/07/26 07:01:16;;;;;;;5.22;2.65;;;;;;;23.76;46.43;100310.31;5047300;28;20021;-95
2023/07/26 07:03:41;;;;;;;4.93;2.60;;;;;;;24.83;45.23;100307.44;5033243;28;20084;-95
2023/07/26 07:06:07;;;;;;;6.05;2.83;;;;;;;24.98;43.88;100304.75;5032490;28;20128;-94
2023/07/26 07:08:33;;;;;;;5.55;2.78;;;;;;;26.37;41.82;100305.22;5043034;28;20068;-96
2023/07/26 07:10:58;;;;;;;8.40;2.67;;;;;;;27.01;40.96;100311.22;5052935;28;20131;-93
2023/07/26 07:13:24;;;;;;;7.63;2.65;;;;;;;27.51;39.08;100306.47;5052505;28;20041;-96
2023/07/26 07:15:50;;;;;;;4.55;2.53;;;;;;;26.90;39.75;100300.19;5053604;28;20025;-95
2023/07/26 07:18:15;;;;;;;4.82;2.60;;;;;;;26.57;40.70;100299.25;5053048;28;20435;-96
2023/07/26 07:20:41;;;;;;;4.25;2.40;;;;;;;24.78;43.25;100302.69;5053621;28;20116;-96
2023/07/26 07:23:06;;;;;;;6.07;3.05;;;;;;;24.14;45.72;100302.38;5051216;28;20036;-96
2023/07/26 07:25:32;;;;;;;10.57;3.20;;;;;;;23.55;46.00;100299.56;5052378;28;20055;-96
2023/07/26 07:27:57;;;;;;;5.57;2.75;;;;;;;22.85;49.13;100306.56;5054243;28;20029;-93
2023/07/26 07:30:22;;;;;;;5.78;2.78;;;;;;;22.29;50.79;100309.19;5053274;28;20025;-94
2023/07/26 07:32:48;;;;;;;5.57;2.95;;;;;;;23.43;48.91;100302.63;5052415;28;20043;-94
2023/07/26 07:35:13;;;;;;;4.85;2.83;;;;;;;23.99;45.19;100301.56;5053530;28;20119;-96
2023/07/26 07:37:39;;;;;;;5.50;2.38;;;;;;;23.69;45.70;100299.63;5056999;28;20467;-96
2023/07/26 07:40:07;;;;;;;5.57;3.08;;;;;;;23.11;46.56;100294.94;5058601;28;20474;-95
2023/07/26 07:42:32;;;;;;;3.75;2.30;;;;;;;24.50;45.76;100293.81;5036737;28;20456;-96
2023/07/26 07:44:58;;;;;;;6.07;2.67;;;;;;;24.66;44.86;100290.16;5032447;28;20037;-96
2023/07/26 07:47:24;;;;;;;8.32;2.30;;;;;;;23.41;46.39;100291.47;5045704;28;20039;-95
2023/07/26 07:49:49;;;;;;;3.92;2.28;;;;;;;22.38;49.76;100294.22;5053103;28;20021;-96
2023/07/26 07:52:14;;;;;;;5.35;2.45;;;;;;;23.16;49.01;100292.59;5053553;28;20029;-96
2023/07/26 07:54:40;;;;;;;5.75;2.30;;;;;;;23.77;46.15;100292.69;5053459;28;20239;-95
2023/07/26 07:57:06;;;;;;;5.22;2.10;;;;;;;23.64;46.93;100288.81;5052912;28;20524;-96
2023/07/26 07:59:31;;;;;;;5.20;2.20;;;;;;;23.03;48.76;100288.72;5052958;28;20029;-96
2023/07/26 08:01:57;;;;;;;3.45;1.95;;;;;;;23.72;47.44;100285.28;5051692;28;20017;-96
2023/07/26 08:04:22;;;;;;;3.72;2.28;;;;;;;23.47;46.98;100289.94;5051914;28;20025;-96
2023/07/26 08:06:47;;;;;;;7.72;2.35;;;;;;;23.16;48.22;100289.97;5053314;28;20067;-96
2023/07/26 08:09:13;;;;;;;4.70;2.13;;;;;;;24.06;45.93;100290.09;5054371;28;20075;-95
2023/07/26 08:11:38;;;;;;;3.20;1.90;;;;;;;24.65;44.98;100284.03;5052742;28;20037;-95
2023/07/26 08:14:04;;;;;;;3.00;2.15;;;;;;;24.75;44.37;100291.69;5041651;28;20033;-95
2023/07/26 08:16:31;;;;;;;5.57;2.20;;;;;;;24.64;44.12;100282.41;5049506;28;20029;-96
2023/07/26 08:19:01;;;;;;;4.38;2.20;;;;;;;24.63;45.44;100285.22;5034072;28;20025;-96
2023/07/26 08:21:26;;;;;;;6.40;2.28;;;;;;;24.85;44.83;100288.75;5037317;28;20052;-95
2023/07/26 08:23:51;;;;;;;6.72;2.55;;;;;;;25.03;44.40;100297.09;5035736;28;20071;-95
2023/07/26 08:26:18;;;;;;;2.80;1.90;;;;;;;25.24;44.26;100292.88;5034966;28;20056;-96
2023/07/26 08:28:43;;;;;;;3.47;2.08;;;;;;;25.41;43.40;100295.09;5051296;28;20025;-93
2023/07/26 08:31:09;;;;;;;3.55;1.52;;;;;;;25.50;43.56;100287.03;5050299;28;20021;-96
2023/07/26 08:33:34;;;;;;;3.65;1.48;;;;;;;24.88;43.38;100283.94;5052328;28;20120;-95
2023/07/26 08:36:00;;;;;;;3.63;1.38;;;;;;;25.27;43.13;100282.75;5050723;28;20013;-96
2023/07/26 08:38:25;;;;;;;3.13;1.50;;;;;;;25.23;41.02;100286.78;5050600;28;20039;-96
2023/07/26 08:40:50;;;;;;;4.53;1.30;;;;;;;24.91;41.70;100277.47;5050294;28;20036;-96
2023/07/26 08:43:21;;;;;;;3.80;1.42;;;;;;;25.46;40.59;100270.75;5048577;28;20394;-95
2023/07/26 08:45:47;;;;;;;1.65;1.30;;;;;;;25.39;39.26;100280.44;5049360;28;20017;-95
2023/07/26 08:48:13;;;;;;;3.10;1.30;;;;;;;24.64;40.71;100268.41;5049829;28;20021;-95
2023/07/26 08:50:40;;;;;;;2.53;1.73;;;;;;;24.02;39.24;100277.47;5050561;28;20024;-95
2023/07/26 08:53:06;;;;;;;2.88;1.70;;;;;;;23.92;40.32;100272.44;5050415;28;20017;-96
2023/07/26 08:55:32;;;;;;;3.15;1.92;;;;;;;24.18;41.14;100269.38;5051021;28;20033;-96
2023/07/26 08:58:02;;;;;;;4.38;1.90;;;;;;;24.81;39.36;100276.94;5049384;28;20044;-96
2023/07/26 09:00:30;;;;;;;3.25;2.15;;;;;;;24.69;38.75;100274.75;5047107;28;20553;-94
2023/07/26 09:02:57;;;;;;;3.83;2.03;;;;;;;24.28;38.56;100269.94;5044518;28;20022;-93
2023/07/26 09:05:23;;;;;;;4.55;1.88;;;;;;;24.33;39.68;100277.31;5031030;28;20050;-95
2023/07/26 09:07:52;;;;;;;4.25;2.03;;;;;;;23.95;41.05;100266.00;5046964;28;20525;-94
2023/07/26 09:10:31;;;;;;;4.65;2.15;;;;;;;24.51;38.60;100267.25;5031994;28;20026;-94
2023/07/26 09:13:10;;;;;;;2.58;1.90;;;;;;;24.41;39.08;100268.47;5051302;28;20091;-94
2023/07/26 09:15:37;;;;;;;3.60;1.98;;;;;;;24.21;38.92;100265.56;5048540;28;20029;-94
2023/07/26 09:18:04;;;;;;;2.92;1.90;;;;;;;24.17;38.99;100264.31;5047841;28;20029;-94
2023/07/26 09:20:30;;;;;;;6.22;2.17;;;;;;;23.95;38.85;100244.91;5048749;28;20013;-94
2023/07/26 09:23:16;;;;;;;;;;;;;;;;;;;;;
2023/07/26 09:25:44;;;;;;;2.95;1.90;;;;;;;23.78;39.36;100242.44;5049782;28;20059;-96
2023/07/26 09:28:14;;;;;;;2.20;1.50;;;;;;;24.39;38.39;100246.75;5046317;28;20075;-96
2023/07/26 09:30:41;;;;;;;4.35;2.22;;;;;;;23.00;38.51;100235.59;5048066;28;20025;-94
2023/07/26 09:38:24;;;;;;;2.78;1.77;;;;;;;22.95;39.43;100228.19;5090479;22;20055;-95
2023/07/26 09:46:46;;;;;;;3.72;2.40;;;;;;;23.38;39.22;100244.38;5493063;22;20796;-96
2023/07/26 09:50:17;;;;;;;4.03;2.40;;;;;;;24.19;39.62;100247.31;4987286;28;20081;-96
2023/07/26 09:52:43;;;;;;;5.05;2.28;;;;;;;24.13;40.01;100253.28;4982992;28;20061;-94
2023/07/26 09:55:09;;;;;;;3.70;2.13;;;;;;;24.09;39.15;100258.13;4994816;28;20470;-90
2023/07/26 09:57:34;;;;;;;5.10;2.25;;;;;;;24.24;38.94;100254.66;5013821;28;20080;-93
2023/07/26 10:00:01;;;;;;;6.10;2.25;;;;;;;24.07;38.14;100243.50;4978798;28;20014;-95
2023/07/26 10:02:28;;;;;;;3.00;2.13;;;;;;;24.18;38.71;100250.13;4984466;28;20503;-91
2023/07/26 10:04:57;;;;;;;5.22;2.58;;;;;;;24.34;39.15;100256.03;4985006;28;20045;-90
2023/07/26 10:07:26;;;;;;;3.80;2.10;;;;;;;24.06;38.26;100247.09;4983589;28;20022;-91
2023/07/26 10:09:53;;;;;;;3.95;2.10;;;;;;;24.05;38.68;100240.22;4997616;28;20053;-90
2023/07/26 10:12:23;;;;;;;4.93;2.03;;;;;;;23.96;38.24;100251.84;4994638;28;20021;-93
2023/07/26 10:14:49;;;;;;;5.05;2.13;;;;;;;23.99;38.35;100243.56;4977147;28;20442;-90
2023/07/26 10:17:17;;;;;;;4.07;1.88;;;;;;;23.84;40.07;100249.63;4998942;28;20037;-90
2023/07/26 10:19:45;;;;;;;3.75;2.00;;;;;;;23.39;41.30;100248.66;4993606;28;20165;-90
2023/07/26 10:22:12;;;;;;;4.70;2.38;;;;;;;23.50;41.01;100242.97;4991897;28;20026;-91
2023/07/26 10:24:41;;;;;;;4.55;1.90;;;;;;;23.20;40.42;100241.22;4975295;28;20173;-90
2023/07/26 10:27:07;;;;;;;3.83;2.35;;;;;;;23.34;41.13;100237.84;4994172;28;20476;-91
2023/07/26 10:29:33;;;;;;;3.63;2.05;;;;;;;23.06;41.66;100240.97;4975869;28;20056;-93
2023/07/26 10:32:00;;;;;;;4.50;2.60;;;;;;;22.79;42.57;100239.63;4993315;28;20500;-91
2023/07/26 10:34:26;;;;;;;4.72;2.72;;;;;;;23.00;41.93;100241.69;4993607;28;20313;-91
2023/07/26 10:36:52;;;;;;;6.25;2.38;;;;;;;23.36;42.30;100246.38;4998248;28;20204;-91
2023/07/26 10:39:29;;;;;;;4.10;1.73;;;;;;;24.05;40.81;100246.28;5002748;28;20484;-92
2023/07/26 10:41:54;;;;;;;3.25;2.13;;;;;;;24.34;40.35;100250.75;5006216;28;20103;-93
2023/07/26 10:44:19;;;;;;;6.72;1.92;;;;;;;24.30;41.09;100253.94;4995331;28;20109;-94
2023/07/26 10:47:00;;;;;;;5.45;2.28;;;;;;;24.29;40.55;100247.03;4991574;28;20041;-95
2023/07/26 10:49:28;;;;;;;4.43;2.00;;;;;;;24.65;40.30;100252.38;4986249;28;20030;-92
2023/07/26 10:51:58;;;;;;;2.38;1.52;;;;;;;25.58;39.55;100247.25;4976130;28;20030;-92
2023/07/26 10:54:48;;;;;;;3.53;1.67;;;;;;;25.72;39.01;100235.78;5004061;28;20033;-93
2023/07/26 10:57:36;;;;;;;4.13;2.00;;;;;;;25.77;38.85;100229.91;5010445;28;20042;-91
2023/07/26 11:00:09;;;;;;;5.07;2.53;;;;;;;24.82;39.37;100225.78;4992879;28;20030;-94
2023/07/26 11:02:48;;;;;;;3.38;1.90;;;;;;;23.57;40.74;100210.66;4978113;28;20034;-91
2023/07/26 11:05:18;;;;;;;3.47;2.15;;;;;;;24.01;41.61;100209.91;4975744;28;20080;-92
2023/07/26 11:08:06;;;;;;;3.72;2.08;;;;;;;24.73;39.97;100217.97;4975738;28;20083;-92
2023/07/26 11:10:49;;;;;;;3.95;1.90;;;;;;;24.24;40.36;100200.09;4994419;28;20537;-92
2023/07/26 11:13:17;;;;;;;5.35;2.60;;;;;;;23.39;41.50;100203.88;5002445;28;20037;-92
2023/07/26 11:15:48;;;;;;;4.40;2.20;;;;;;;23.00;42.71;100202.22;4994528;28;20113;-91
2023/07/26 11:18:15;;;;;;;3.53;2.20;;;;;;;23.64;42.22;100198.41;4994532;28;20444;-92
2023/07/26 11:20:46;;;;;;;3.42;2.03;;;;;;;23.39;42.72;100198.63;4994299;28;20088;-91
2023/07/26 11:23:29;;;;;;;7.85;2.05;;;;;;;23.77;42.83;100197.81;4994524;28;20026;-91
2023/07/26 11:25:58;;;;;;;4.45;2.05;;;;;;;23.86;42.52;100197.53;4996533;28;20076;-91
2023/07/26 11:28:27;;;;;;;4.97;2.03;;;;;;;23.89;42.95;100202.44;5011376;28;20025;-90
2023/07/26 11:30:54;;;;;;;2.63;1.90;;;;;;;23.71;42.92;100194.06;4977342;28;20114;-91
2023/07/26 11:33:29;;;;;;;3.70;2.05;;;;;;;23.37;43.33;100195.34;5002236;28;20492;-91
2023/07/26 11:35:55;;;;;;;4.40;1.67;;;;;;;23.67;43.12;100200.69;4999226;28;20504;-91